| time (UTC) | temp F | wind direction | speed knots | gust knots | rain 1hr in | rain 24hr in | rain mn in | humidity % | barometer mb |
| 20260906065308 | 81 | 329 | 0.0 | 4.3 | 0.00 | 0.00 | 0.00 | 77 | 999.7 |
| 20260906064307 | 81 | 127 | 2.6 | 7.8 | 0.00 | 0.00 | 0.00 | 78 | 999.8 |
| 20260906062307 | 81 | 255 | 0.0 | 0.0 | 0.00 | 0.00 | 0.00 | 78 | 999.8 |
| 20260906061307 | 81 | 255 | 0.0 | 0.0 | 0.00 | 0.00 | 0.00 | 78 | 999.9 |
| 20260906055307 | 81 | 278 | 0.0 | 0.9 | 0.00 | 0.00 | 0.00 | 78 | 1000.0 |
| 20260906052807 | 82 | 116 | 0.0 | 0.0 | 0.00 | 0.00 | 0.00 | 76 | 999.9 |
| 20260906052307 | 82 | 116 | 0.0 | 0.9 | 0.00 | 0.00 | 0.00 | 76 | 1000.0 |
| 20260906051807 | 82 | 125 | 0.0 | 0.9 | 0.00 | 0.00 | 0.00 | 76 | 1000.0 |
| 20260906051307 | 82 | 317 | 0.0 | 0.9 | 0.00 | 0.00 | 0.00 | 76 | 999.9 |
| 20260906050307 | 82 | 132 | 0.0 | 0.9 | 0.00 | 0.00 | 0.00 | 75 | 999.9 |
| 20260906044807 | 82 | 133 | 0.0 | 1.7 | 0.00 | 0.00 | 0.00 | 74 | 999.9 |
| 20260906043307 | 82 | 95 | 0.0 | 0.0 | 0.00 | 0.00 | 0.00 | 74 | 999.7 |
| 20260906042807 | 83 | 95 | 0.0 | 0.9 | 0.00 | 0.00 | 0.00 | 74 | 999.7 |
| 20260906041807 | 83 | 320 | 0.9 | 1.7 | 0.00 | 0.00 | 0.00 | 73 | 999.7 |
| 20260906041307 | 83 | 130 | 0.0 | 0.9 | 0.00 | 0.00 | 0.00 | 72 | 999.7 |
| 20260906040807 | 83 | 247 | 0.0 | 0.0 | 0.00 | 0.00 | 0.00 | 73 | 999.7 |
| 20260906035307 | 83 | 295 | 0.0 | 0.9 | 0.00 | 0.00 | 0.00 | 72 | 999.7 |
| 20260906033807 | 83 | 310 | 0.0 | 1.7 | 0.00 | 0.00 | 0.00 | 70 | 999.7 |
| 20260906033307 | 84 | 308 | 0.0 | 1.7 | 0.00 | 0.00 | 0.00 | 70 | 999.8 |
| 20260906031307 | 84 | 144 | 0.0 | 0.9 | 0.00 | 0.00 | 0.00 | 70 | 999.7 |
| 20260906030807 | 85 | 117 | 0.0 | 0.9 | 0.00 | 0.00 | 0.00 | 70 | 999.7 |
| 20260906025307 | 85 | 306 | 0.9 | 1.7 | 0.00 | 0.00 | 0.00 | 68 | 999.6 |
| 20260906023307 | 85 | 174 | 0.0 | 0.9 | 0.00 | 0.00 | 0.00 | 66 | 999.6 |
| 20260906022807 | 86 | 45 | 0.0 | 0.9 | 0.00 | 0.00 | 0.00 | 67 | 999.6 |
| 20260906022307 | 86 | 321 | 0.0 | 0.9 | 0.00 | 0.00 | 0.00 | 66 | 999.5 |
| 20260906020807 | 87 | 321 | 0.0 | 0.0 | 0.00 | 0.00 | 0.00 | 65 | 999.5 |
| 20260906020307 | 87 | 321 | 0.0 | 0.0 | 0.00 | 0.00 | 0.00 | 65 | 999.4 |
| 20260906014807 | 87 | 321 | 0.0 | 0.0 | 0.00 | 0.00 | 0.00 | 64 | 999.2 |
| 20260906013807 | 88 | 321 | 0.0 | 0.0 | 0.00 | 0.00 | 0.00 | 63 | 999.1 |
| 20260906013307 | 88 | 321 | 0.0 | 0.0 | 0.00 | 0.00 | 0.00 | 62 | 999.0 |
| 20260906012807 | 88 | 321 | 0.0 | 0.0 | 0.00 | 0.00 | 0.00 | 62 | 998.9 |
| 20260906011806 | 88 | 339 | 0.0 | 0.0 | 0.00 | 0.00 | 0.00 | 60 | 998.8 |
| 20260906010307 | 89 | 313 | 0.0 | 0.9 | 0.00 | 0.00 | 0.00 | 58 | 998.6 |
| 20260906004307 | 90 | 307 | 0.0 | 0.9 | 0.00 | 0.00 | 0.00 | 56 | 998.6 |
| 20260906003807 | 91 | 311 | 0.0 | 0.0 | 0.00 | 0.00 | 0.00 | 56 | 998.6 |
| 20260906003308 | 91 | 311 | 0.0 | 0.9 | 0.00 | 0.00 | 0.00 | 56 | 998.6 |
| 20260906001807 | 93 | 116 | 0.0 | 0.0 | 0.00 | 0.00 | 0.00 | 53 | 998.6 |
| 20260906001307 | 93 | 116 | 0.0 | 0.0 | 0.00 | 0.00 | 0.00 | 52 | 998.5 |
| 20260906000807 | 94 | 116 | 0.0 | 0.0 | 0.00 | 0.00 | 0.00 | 52 | 998.5 |
| 20260906000306 | 94 | 116 | 0.0 | 0.0 | 0.00 | 0.00 | 0.00 | 53 | 998.6 |
| 20260905235807 | 95 | 116 | 0.0 | 0.9 | 0.00 | 0.00 | 0.00 | 52 | 998.7 |
| 20260905234807 | 96 | 127 | 0.0 | 0.0 | 0.00 | 0.00 | 0.00 | 49 | 998.7 |
| 20260905234307 | 97 | 127 | 0.0 | 0.0 | 0.00 | 0.00 | 0.00 | 49 | 998.6 |
| 20260905233307 | 98 | 118 | 0.9 | 2.6 | 0.00 | 0.00 | 0.00 | 48 | 998.6 |
| 20260905232807 | 98 | 133 | 0.9 | 2.6 | 0.00 | 0.00 | 0.00 | 46 | 998.6 |
| 20260905231807 | 99 | 123 | 0.9 | 5.2 | 0.00 | 0.00 | 0.00 | 44 | 998.7 |
| 20260905230807 | 98 | 341 | 0.0 | 1.7 | 0.00 | 0.00 | 0.00 | 45 | 998.8 |
| 20260905230306 | 99 | 310 | 0.0 | 2.6 | 0.00 | 0.00 | 0.00 | 45 | 998.7 |
| 20260905225807 | 99 | 110 | 0.0 | 4.3 | 0.00 | 0.00 | 0.00 | 44 | 998.7 |
| 20260905225307 | 100 | 144 | 0.0 | 2.6 | 0.00 | 0.00 | 0.00 | 43 | 998.7 |
| 20260905224807 | 99 | 113 | 0.9 | 4.3 | 0.00 | 0.00 | 0.00 | 44 | 998.7 |
| 20260905223807 | 100 | 125 | 0.0 | 4.3 | 0.00 | 0.00 | 0.00 | 44 | 998.7 |
| 20260905223307 | 100 | 84 | 0.9 | 4.3 | 0.00 | 0.00 | 0.00 | 45 | 998.7 |
| 20260905222307 | 100 | 136 | 1.7 | 5.2 | 0.00 | 0.00 | 0.00 | 46 | 998.7 |
| 20260905220807 | 102 | 121 | 0.9 | 2.6 | 0.00 | 0.00 | 0.00 | 43 | 998.7 |
| 20260905215307 | 103 | 299 | 0.9 | 2.6 | 0.00 | 0.00 | 0.00 | 39 | 998.7 |
| 20260905212307 | 103 | 35 | 0.9 | 4.3 | 0.00 | 0.00 | 0.00 | 40 | 998.9 |
| 20260905205807 | 104 | 319 | 1.7 | 4.3 | 0.00 | 0.00 | 0.00 | 40 | 999.0 |
| 20260905205307 | 104 | 106 | 1.7 | 6.1 | 0.00 | 0.00 | 0.00 | 40 | 999.1 |
| 20260905204807 | 104 | 313 | 1.7 | 4.3 | 0.00 | 0.00 | 0.00 | 40 | 999.2 |
| 20260905203807 | 103 | 121 | 0.9 | 5.2 | 0.00 | 0.00 | 0.00 | 40 | 999.2 |
| 20260905202808 | 104 | 333 | 0.9 | 2.6 | 0.00 | 0.00 | 0.00 | 40 | 999.4 |
| 20260905202306 | 105 | 73 | 2.6 | 5.2 | 0.00 | 0.00 | 0.00 | 40 | 999.5 |
| 20260905201807 | 105 | 199 | 0.9 | 4.3 | 0.00 | 0.00 | 0.00 | 40 | 999.6 |
| 20260905194806 | 104 | 108 | 0.9 | 5.2 | 0.00 | 0.00 | 0.00 | 39 | 1000.0 |
| 20260905194307 | 103 | 67 | 0.9 | 4.3 | 0.00 | 0.00 | 0.00 | 39 | 1000.0 |
| 20260905193807 | 102 | 131 | 1.7 | 4.3 | 0.00 | 0.00 | 0.00 | 42 | 1000.1 |
| 20260905192807 | 104 | 333 | 1.7 | 5.2 | 0.00 | 0.00 | 0.00 | 40 | 1000.3 |
| 20260905191806 | 104 | 275 | 0.9 | 4.3 | 0.00 | 0.00 | 0.00 | 41 | 1000.4 |
| 20260905191307 | 104 | 276 | 0.9 | 4.3 | 0.00 | 0.00 | 0.00 | 40 | 1000.4 |
| 20260905190307 | 105 | 325 | 1.7 | 7.0 | 0.00 | 0.00 | 0.00 | 41 | 1000.5 |
| 20260905184806 | 103 | 109 | 2.6 | 6.1 | 0.00 | 0.00 | 0.00 | 42 | 1000.7 |
| 20260905183807 | 102 | 295 | 2.6 | 6.1 | 0.00 | 0.00 | 0.00 | 43 | 1000.7 |
| 20260905183309 | 103 | 110 | 2.6 | 7.8 | 0.00 | 0.00 | 0.00 | 42 | 1000.8 |
| 20260905182807 | 103 | 150 | 1.7 | 6.1 | 0.00 | 0.00 | 0.00 | 43 | 1000.9 |
| 20260905182307 | 102 | 294 | 0.9 | 2.6 | 0.00 | 0.00 | 0.00 | 44 | 1000.9 |
| 20260905175807 | 100 | 120 | 1.7 | 4.3 | 0.00 | 0.00 | 0.00 | 45 | 1001.2 |
| 20260905175307 | 100 | 339 | 0.9 | 4.3 | 0.00 | 0.00 | 0.00 | 45 | 1001.2 |
| 20260905174307 | 100 | 345 | 0.9 | 2.6 | 0.00 | 0.00 | 0.00 | 46 | 1001.3 |
| 20260905173307 | 100 | 338 | 1.7 | 4.3 | 0.00 | 0.00 | 0.00 | 46 | 1001.3 |
| 20260905172306 | 102 | 131 | 1.7 | 5.2 | 0.00 | 0.00 | 0.00 | 45 | 1001.4 |
| 20260905171807 | 103 | 305 | 1.7 | 5.2 | 0.00 | 0.00 | 0.00 | 43 | 1001.5 |
| 20260905163806 | 101 | 123 | 1.7 | 2.6 | 0.00 | 0.00 | 0.00 | 47 | 1001.9 |
| 20260905162807 | 99 | 315 | 0.9 | 2.6 | 0.00 | 0.00 | 0.00 | 50 | 1002.0 |
| 20260905161808 | 99 | 93 | 2.6 | 6.1 | 0.00 | 0.00 | 0.00 | 48 | 1002.1 |
| 20260905160806 | 97 | 136 | 0.9 | 4.3 | 0.00 | 0.00 | 0.00 | 51 | 1002.2 |
| 20260905160307 | 97 | 203 | 0.9 | 2.6 | 0.00 | 0.00 | 0.00 | 51 | 1002.2 |
| 20260905155807 | 97 | 315 | 0.9 | 4.3 | 0.00 | 0.00 | 0.00 | 52 | 1002.3 |
| 20260905152806 | 98 | 308 | 0.9 | 4.3 | 0.00 | 0.00 | 0.00 | 50 | 1002.3 |
| 20260905152306 | 96 | 113 | 1.7 | 5.2 | 0.00 | 0.00 | 0.00 | 51 | 1002.3 |
| 20260905151807 | 95 | 296 | 1.7 | 2.6 | 0.00 | 0.00 | 0.00 | 54 | 1002.3 |
| 20260905151307 | 96 | 316 | 0.9 | 2.6 | 0.00 | 0.00 | 0.00 | 53 | 1002.3 |
| 20260905150306 | 96 | 301 | 0.9 | 4.3 | 0.00 | 0.00 | 0.00 | 54 | 1002.4 |
| 20260905144806 | 93 | 291 | 0.9 | 2.6 | 0.00 | 0.00 | 0.00 | 57 | 1002.3 |
| 20260905141806 | 90 | 314 | 1.7 | 2.6 | 0.00 | 0.00 | 0.00 | 61 | 1002.3 |
| 20260905141306 | 90 | 331 | 0.9 | 1.7 | 0.00 | 0.00 | 0.00 | 61 | 1002.3 |
| 20260905140306 | 89 | 141 | 0.9 | 1.7 | 0.00 | 0.00 | 0.00 | 62 | 1002.2 |
| 20260905135806 | 88 | 287 | 0.0 | 1.7 | 0.00 | 0.00 | 0.00 | 64 | 1002.1 |
| 20260905134806 | 87 | 104 | 0.9 | 2.6 | 0.00 | 0.00 | 0.00 | 65 | 1002.1 |
| 20260905134306 | 86 | 85 | 0.9 | 2.6 | 0.00 | 0.00 | 0.00 | 69 | 1002.2 |
| 20260905132807 | 84 | 155 | 0.0 | 1.7 | 0.00 | 0.00 | 0.00 | 71 | 1002.2 |
| 20260905131306 | 83 | 127 | 0.9 | 2.6 | 0.00 | 0.00 | 0.00 | 73 | 1002.1 |
| 20260905130806 | 82 | 141 | 0.9 | 2.6 | 0.00 | 0.00 | 0.00 | 74 | 1002.1 |
| 20260905130306 | 82 | 134 | 0.0 | 1.7 | 0.00 | 0.00 | 0.00 | 77 | 1002.1 |
| 20260905124307 | 80 | 127 | 0.0 | 0.9 | 0.00 | 0.00 | 0.00 | 80 | 1002.1 |
| 20260905115806 | 78 | 317 | 0.0 | 0.9 | 0.00 | 0.00 | 0.00 | 84 | 1001.8 |
| 20260905114807 | 78 | 189 | 0.0 | 0.9 | 0.00 | 0.00 | 0.00 | 85 | 1001.8 |
| 20260905114306 | 78 | 142 | 0.0 | 2.6 | 0.00 | 0.00 | 0.00 | 84 | 1001.8 |
| 20260905113807 | 78 | 15 | 0.0 | 1.7 | 0.00 | 0.00 | 0.00 | 84 | 1001.7 |
| 20260905112806 | 78 | 129 | 0.0 | 0.9 | 0.00 | 0.00 | 0.00 | 84 | 1001.5 |
| 20260905104806 | 78 | 98 | 0.0 | 1.7 | 0.00 | 0.00 | 0.00 | 83 | 1001.4 |
| 20260905103806 | 78 | 120 | 0.0 | 1.7 | 0.00 | 0.00 | 0.00 | 82 | 1001.4 |
| 20260905103307 | 78 | 119 | 0.0 | 0.9 | 0.00 | 0.00 | 0.00 | 81 | 1001.4 |
| 20260905102306 | 78 | 344 | 0.0 | 0.9 | 0.00 | 0.00 | 0.00 | 82 | 1001.3 |
| 20260905100306 | 78 | 57 | 0.0 | 0.0 | 0.00 | 0.00 | 0.00 | 81 | 1001.3 |
| 20260905095806 | 78 | 96 | 0.0 | 0.9 | 0.00 | 0.00 | 0.00 | 81 | 1001.4 |
| 20260905095306 | 78 | 289 | 0.0 | 0.9 | 0.00 | 0.00 | 0.00 | 81 | 1001.4 |
| 20260905094806 | 79 | 319 | 0.0 | 0.0 | 0.00 | 0.00 | 0.00 | 81 | 1001.3 |
| 20260905094306 | 79 | 122 | 0.0 | 0.0 | 0.00 | 0.00 | 0.00 | 81 | 1001.3 |
| 20260905093806 | 79 | 122 | 0.0 | 0.9 | 0.00 | 0.00 | 0.00 | 81 | 1001.3 |
| 20260905093307 | 79 | 319 | 0.0 | 0.0 | 0.00 | 0.00 | 0.00 | 80 | 1001.2 |
| 20260905090806 | 79 | 311 | 0.0 | 1.7 | 0.00 | 0.00 | 0.00 | 80 | 1001.2 |
| 20260905090306 | 79 | 323 | 0.0 | 0.9 | 0.00 | 0.00 | 0.00 | 80 | 1001.2 |
| 20260905085806 | 79 | 147 | 0.0 | 0.0 | 0.00 | 0.00 | 0.00 | 80 | 1001.2 |
| 20260905084306 | 80 | 319 | 0.0 | 0.9 | 0.00 | 0.00 | 0.00 | 79 | 1001.1 |
| 20260905081806 | 80 | 255 | 0.0 | 1.7 | 0.00 | 0.00 | 0.00 | 78 | 1001.3 |
| 20260905081306 | 80 | 128 | 0.0 | 0.9 | 0.00 | 0.00 | 0.00 | 78 | 1001.4 |
| 20260905080306 | 80 | 308 | 0.9 | 1.7 | 0.00 | 0.00 | 0.00 | 77 | 1001.3 |
| 20260905073806 | 80 | 120 | 0.0 | 7.0 | 0.00 | 0.00 | 0.00 | 76 | 1001.4 |
| 20260905072806 | 81 | 322 | 0.0 | 0.0 | 0.00 | 0.00 | 0.00 | 75 | 1001.4 |
| 20260905072308 | 81 | 309 | 0.0 | 0.9 | 0.00 | 0.00 | 0.00 | 75 | 1001.4 |
| 20260905071306 | 81 | 139 | 0.0 | 0.0 | 0.00 | 0.00 | 0.00 | 75 | 1001.4 |
| 20260905070807 | 81 | 171 | 0.0 | 0.0 | 0.00 | 0.00 | 0.00 | 74 | 1001.4 |